createdAt,value
2023-01-13T00:00:48.225Z,73.78
2023-01-13T00:05:39.821Z,73.29
2023-01-13T00:10:31.366Z,76.39
2023-01-13T00:15:22.929Z,79.74
2023-01-13T00:20:14.953Z,81.64
2023-01-13T00:25:07.050Z,81.16
2023-01-13T00:29:59.182Z,79.24
2023-01-13T00:34:50.821Z,78.82
2023-01-13T00:39:42.572Z,78.68
2023-01-13T00:44:34.140Z,79.06
2023-01-13T00:49:25.732Z,78.83
2023-01-13T00:54:17.319Z,77.10
2023-01-13T00:59:12.846Z,76.19
2023-01-13T01:04:04.641Z,72.63
2023-01-13T01:08:56.721Z,69.73
2023-01-13T01:13:49.209Z,67.96
2023-01-13T01:18:42.940Z,66.67
2023-01-13T01:23:36.511Z,66.58
2023-01-13T01:28:28.307Z,65.91
2023-01-13T01:33:19.848Z,65.77
2023-01-13T01:38:11.866Z,64.21
2023-01-13T01:43:32.766Z,63.73
2023-01-13T01:48:25.076Z,64.65
2023-01-13T01:53:19.593Z,64.07
2023-01-13T01:58:21.847Z,65.74
2023-01-13T02:03:15.158Z,65.91
2023-01-13T02:08:08.406Z,66.16
2023-01-13T02:13:04.759Z,66.92
2023-01-13T02:18:11.267Z,67.95
2023-01-13T02:23:05.562Z,68.95
2023-01-13T02:28:12.225Z,70.46
2023-01-13T02:33:39.192Z,70.55
2023-01-13T02:38:39.501Z,68.57
2023-01-13T02:43:57.372Z,67.54
2023-01-13T02:48:52.778Z,66.50
2023-01-13T02:53:58.407Z,65.83
2023-01-13T02:58:50.940Z,65.57
2023-01-13T03:03:43.906Z,64.99
2023-01-13T03:08:48.715Z,64.41
2023-01-13T03:14:16.949Z,63.94
2023-01-13T03:19:21.631Z,64.08
2023-01-13T03:24:20.023Z,63.68
2023-01-13T03:29:17.329Z,63.81
2023-01-13T03:34:15.851Z,64.34
2023-01-13T03:39:16.368Z,65.11
2023-01-13T03:44:23.759Z,65.14
2023-01-13T03:49:20.507Z,65.19
2023-01-13T03:54:13.962Z,64.65
2023-01-13T03:59:11.686Z,64.28
2023-01-13T04:04:08.224Z,64.55
2023-01-13T04:09:11.857Z,64.75
2023-01-13T04:14:06.277Z,65.10
2023-01-13T04:18:57.860Z,65.50
2023-01-13T04:23:51.423Z,66.52
2023-01-13T04:28:43.076Z,67.33
2023-01-13T04:33:34.665Z,68.42
2023-01-13T04:38:26.382Z,69.09
2023-01-13T04:43:18.025Z,69.30
2023-01-13T04:48:09.786Z,69.34
2023-01-13T04:53:01.596Z,69.56
2023-01-13T04:57:53.329Z,69.62
2023-01-13T05:02:44.898Z,68.34
2023-01-13T05:07:36.869Z,67.25
2023-01-13T05:12:47.181Z,67.67
2023-01-13T05:17:39.640Z,67.48
2023-01-13T05:22:49.657Z,67.97
2023-01-13T05:27:41.349Z,68.63
2023-01-13T05:32:33.203Z,68.83
2023-01-13T05:37:25.873Z,68.12
2023-01-13T05:42:36.088Z,67.72
2023-01-13T05:47:28.500Z,67.72
2023-01-13T05:52:20.107Z,67.00
2023-01-13T05:57:11.691Z,65.82
2023-01-13T06:02:03.218Z,65.97
2023-01-13T06:06:55.930Z,66.32
2023-01-13T06:11:47.590Z,66.66
2023-01-13T06:16:39.335Z,66.76
2023-01-13T06:21:33.005Z,66.21
2023-01-13T06:26:25.161Z,66.01
2023-01-13T06:31:16.911Z,66.17
2023-01-13T06:36:22.137Z,66.86
2023-01-13T06:41:14.111Z,66.77
2023-01-13T06:46:05.978Z,67.53
2023-01-13T06:50:57.505Z,66.67
2023-01-13T06:55:49.160Z,66.72
2023-01-13T07:00:41.128Z,66.23
2023-01-13T07:05:32.747Z,65.76
2023-01-13T07:10:24.324Z,65.45
2023-01-13T07:15:18.695Z,66.01
2023-01-13T07:20:10.802Z,66.82
2023-01-13T07:25:02.361Z,67.23
2023-01-13T07:29:53.978Z,67.47
2023-01-13T07:34:45.529Z,67.86
2023-01-13T07:39:37.147Z,68.08
2023-01-13T07:44:28.729Z,67.13
2023-01-13T07:49:20.292Z,68.18
2023-01-13T07:54:11.943Z,68.97
2023-01-13T07:59:03.838Z,69.05
2023-01-13T08:03:56.326Z,69.49
2023-01-13T08:08:47.938Z,68.79
2023-01-13T08:13:39.678Z,66.69
2023-01-13T08:18:32.338Z,64.87
2023-01-13T08:23:23.944Z,65.27
2023-01-13T08:28:16.516Z,63.31
2023-01-13T08:33:09.881Z,62.27
2023-01-13T08:38:01.440Z,61.26
2023-01-13T08:42:55.518Z,59.72
2023-01-13T08:47:47.126Z,59.72
2023-01-13T08:52:38.735Z,60.98
2023-01-13T08:57:30.393Z,61.83
2023-01-13T09:02:23.568Z,61.47
2023-01-13T09:07:15.605Z,60.72
2023-01-13T09:12:29.500Z,60.26
2023-01-13T09:17:21.136Z,59.50
2023-01-13T09:22:18.535Z,58.85
2023-01-13T09:27:15.257Z,58.99
2023-01-13T09:32:07.227Z,58.61
2023-01-13T09:36:59.108Z,57.49
2023-01-13T09:42:13.312Z,56.81
2023-01-13T09:47:14.456Z,56.95
2023-01-13T09:52:27.072Z,57.05
2023-01-13T09:57:20.850Z,55.69
2023-01-13T10:02:24.294Z,55.66
2023-01-13T10:07:15.975Z,55.48
2023-01-13T10:12:35.912Z,55.05
2023-01-13T10:17:38.315Z,55.23
2023-01-13T10:22:44.693Z,55.83
2023-01-13T10:27:40.730Z,54.81
2023-01-13T10:32:32.614Z,54.88
2023-01-13T10:37:27.121Z,55.11
2023-01-13T10:42:22.814Z,54.39
2023-01-13T10:47:25.154Z,53.75
2023-01-13T10:52:29.505Z,53.39
2023-01-13T10:57:23.632Z,53.39
2023-01-13T11:02:25.959Z,52.86
2023-01-13T11:07:26.815Z,52.50
2023-01-13T11:12:32.439Z,53.31
2023-01-13T11:18:00.714Z,52.58
2023-01-13T11:22:55.673Z,52.45
2023-01-13T11:28:00.685Z,52.73
2023-01-13T11:33:04.902Z,51.33
2023-01-13T11:38:06.523Z,51.06
2023-01-13T11:43:17.905Z,51.01
2023-01-13T11:48:20.811Z,51.02
2023-01-13T11:54:05.006Z,51.24
2023-01-13T11:59:31.196Z,50.79
2023-01-13T12:04:22.712Z,51.06
2023-01-13T12:09:36.916Z,50.59
2023-01-13T12:14:58.674Z,50.29
2023-01-13T12:32:36.557Z,52.44
2023-01-13T12:37:43.038Z,53.38
2023-01-13T12:43:12.297Z,54.09
2023-01-13T12:48:05.116Z,55.59
2023-01-13T12:52:59.261Z,56.86
2023-01-13T12:58:06.125Z,58.58
2023-01-13T13:03:13.805Z,60.20
2023-01-13T13:08:14.603Z,62.63
2023-01-13T13:13:20.267Z,65.88
2023-01-13T13:18:18.038Z,68.29
2023-01-13T13:23:27.247Z,68.53
2023-01-13T13:28:21.839Z,71.22
2023-01-13T13:33:41.477Z,73.63
2023-01-13T13:39:06.809Z,73.67
2023-01-13T13:44:29.947Z,76.15
2023-01-13T13:49:34.799Z,76.49
2023-01-13T13:54:27.182Z,78.34
2023-01-13T13:59:24.803Z,77.09
2023-01-13T14:04:27.437Z,78.01
2023-01-13T14:09:20.140Z,78.09
2023-01-13T14:14:17.240Z,75.56
2023-01-13T14:19:44.138Z,74.72
2023-01-13T14:24:46.509Z,72.58
2023-01-13T14:29:38.289Z,71.21
2023-01-13T14:34:31.512Z,70.88
2023-01-13T14:39:33.416Z,70.95
2023-01-13T14:44:27.930Z,70.20
2023-01-13T14:49:35.995Z,70.13
2023-01-13T14:55:11.272Z,70.63
2023-01-13T15:00:21.296Z,69.89
2023-01-13T15:05:18.933Z,71.37
2023-01-13T15:10:18.032Z,71.79
2023-01-13T15:15:30.146Z,70.88
2023-01-13T15:20:23.794Z,71.01
2023-01-13T15:25:15.893Z,70.36
2023-01-13T15:30:22.312Z,69.38
2023-01-13T15:35:15.748Z,69.75
2023-01-13T15:40:20.193Z,70.52
2023-01-13T15:45:33.494Z,71.58
2023-01-13T15:50:25.444Z,72.14
2023-01-13T15:55:17.019Z,72.04
2023-01-13T16:00:16.220Z,72.02
2023-01-13T16:05:08.121Z,72.55
2023-01-13T16:10:01.758Z,72.38
2023-01-13T16:14:53.382Z,72.39
2023-01-13T16:19:45.461Z,72.55
2023-01-13T16:24:37.725Z,72.39
2023-01-13T16:29:29.395Z,72.70
2023-01-13T16:34:21.017Z,73.14
2023-01-13T16:39:22.557Z,72.86
2023-01-13T16:44:14.316Z,73.10
2023-01-13T16:49:06.611Z,73.43
2023-01-13T16:53:58.236Z,72.00
2023-01-13T16:58:51.343Z,71.00
2023-01-13T17:03:44.373Z,70.22
2023-01-13T17:08:36.043Z,69.88
2023-01-13T17:13:27.767Z,70.58
2023-01-13T17:18:19.372Z,71.50
2023-01-13T17:23:11.029Z,71.37
2023-01-13T17:28:02.830Z,71.40
2023-01-13T17:32:54.397Z,71.07
2023-01-13T17:37:46.833Z,70.19
2023-01-13T17:42:38.464Z,69.38
2023-01-13T17:47:30.004Z,69.17
2023-01-13T17:52:21.627Z,68.83
2023-01-13T17:57:13.306Z,68.77
2023-01-13T18:02:05.178Z,68.89
2023-01-13T18:06:57.134Z,68.90
2023-01-13T18:11:49.009Z,69.01
2023-01-13T18:16:40.780Z,69.01
2023-01-13T18:21:51.289Z,68.72
2023-01-13T18:27:01.698Z,67.20
2023-01-13T18:31:53.378Z,66.47
2023-01-13T18:36:45.072Z,66.46
2023-01-13T18:41:55.433Z,66.08
2023-01-13T18:46:47.095Z,65.59
2023-01-13T18:51:39.601Z,65.54
2023-01-13T18:56:31.280Z,65.53
2023-01-13T19:01:26.028Z,65.01
2023-01-13T19:06:17.694Z,64.49
2023-01-13T19:11:09.511Z,64.96
2023-01-13T19:16:06.295Z,64.93
2023-01-13T19:21:03.174Z,64.54
2023-01-13T19:25:54.888Z,64.16
2023-01-13T19:30:46.555Z,64.19
2023-01-13T19:35:38.373Z,64.40
2023-01-13T19:40:30.061Z,64.83
2023-01-13T19:45:27.888Z,64.47
2023-01-13T19:50:19.939Z,64.33
2023-01-13T19:55:12.477Z,64.25
2023-01-13T20:00:05.746Z,65.44
2023-01-13T20:05:07.580Z,65.90
2023-01-13T20:09:59.571Z,66.10
2023-01-13T20:14:51.678Z,65.75
2023-01-13T20:19:43.507Z,65.91
2023-01-13T20:24:35.675Z,65.26
2023-01-13T20:29:28.495Z,64.96
2023-01-13T20:34:21.099Z,65.29
2023-01-13T20:39:18.202Z,64.49
2023-01-13T20:44:11.605Z,64.89
2023-01-13T20:49:03.553Z,65.18
2023-01-13T20:53:56.740Z,65.26
2023-01-13T20:58:48.368Z,66.27
2023-01-13T21:03:40.252Z,66.11
2023-01-13T21:08:32.393Z,65.66
2023-01-13T21:13:42.512Z,65.85
2023-01-13T21:18:53.091Z,66.00
2023-01-13T21:23:47.516Z,66.10
2023-01-13T21:28:39.218Z,66.25
2023-01-13T21:33:31.032Z,66.58
2023-01-13T21:38:23.078Z,66.20
2023-01-13T21:43:33.288Z,66.60
2023-01-13T21:48:24.940Z,66.25
2023-01-13T21:53:16.589Z,66.31
2023-01-13T21:58:11.549Z,65.79
2023-01-13T22:03:04.908Z,66.18
2023-01-13T22:07:56.631Z,65.91
2023-01-13T22:12:49.006Z,66.33
2023-01-13T22:17:42.212Z,66.04
2023-01-13T22:22:36.647Z,66.36
2023-01-13T22:27:30.574Z,66.14
2023-01-13T22:32:22.544Z,66.58
2023-01-13T22:37:14.158Z,66.32
2023-01-13T22:42:06.516Z,66.42
2023-01-13T22:46:58.097Z,66.52
2023-01-13T22:51:49.698Z,66.49
2023-01-13T22:56:41.360Z,66.98
2023-01-13T23:01:36.191Z,66.79
2023-01-13T23:06:29.768Z,66.94
2023-01-13T23:11:24.569Z,67.03
2023-01-13T23:16:23.725Z,66.82
